sensor_id;sensor_type;location;lat;lon;timestamp;P1;durP1;ratioP1;P2;durP2;ratioP2
75189;SDS011;69198;44.694;37.790;2023-07-16T00:00:01;11.02;;;5.82;;
75189;SDS011;69198;44.694;37.790;2023-07-16T00:01:06;13.25;;;6.22;;
75189;SDS011;69198;44.694;37.790;2023-07-16T00:02:07;12.10;;;6.20;;
75189;SDS011;69198;44.694;37.790;2023-07-16T00:03:08;13.40;;;6.55;;
75189;SDS011;69198;44.694;37.790;2023-07-16T00:04:10;13.43;;;6.05;;
75189;SDS011;69198;44.694;37.790;2023-07-16T00:05:11;12.33;;;6.17;;
75189;SDS011;69198;44.694;37.790;2023-07-16T00:06:12;12.90;;;6.75;;
75189;SDS011;69198;44.694;37.790;2023-07-16T00:07:13;14.05;;;6.00;;
75189;SDS011;69198;44.694;37.790;2023-07-16T00:08:14;12.25;;;5.85;;
75189;SDS011;69198;44.694;37.790;2023-07-16T00:09:15;11.55;;;6.32;;
75189;SDS011;69198;44.694;37.790;2023-07-16T00:10:16;11.70;;;6.32;;
75189;SDS011;69198;44.694;37.790;2023-07-16T00:11:17;14.75;;;6.28;;
75189;SDS011;69198;44.694;37.790;2023-07-16T00:12:18;12.90;;;7.13;;
75189;SDS011;69198;44.694;37.790;2023-07-16T00:13:19;12.90;;;6.10;;
75189;SDS011;69198;44.694;37.790;2023-07-16T00:14:20;12.20;;;6.50;;
75189;SDS011;69198;44.694;37.790;2023-07-16T00:15:21;12.10;;;6.53;;
75189;SDS011;69198;44.694;37.790;2023-07-16T00:16:22;13.27;;;6.85;;
75189;SDS011;69198;44.694;37.790;2023-07-16T00:17:23;13.45;;;6.60;;
75189;SDS011;69198;44.694;37.790;2023-07-16T00:18:24;13.10;;;7.00;;
75189;SDS011;69198;44.694;37.790;2023-07-16T00:19:25;13.27;;;7.38;;
75189;SDS011;69198;44.694;37.790;2023-07-16T00:20:26;14.93;;;7.15;;
75189;SDS011;69198;44.694;37.790;2023-07-16T00:21:27;12.88;;;6.63;;
75189;SDS011;69198;44.694;37.790;2023-07-16T00:22:28;12.32;;;6.30;;
75189;SDS011;69198;44.694;37.790;2023-07-16T00:23:29;12.18;;;6.40;;
75189;SDS011;69198;44.694;37.790;2023-07-16T00:24:30;12.55;;;6.70;;
75189;SDS011;69198;44.694;37.790;2023-07-16T00:25:31;14.52;;;6.55;;
75189;SDS011;69198;44.694;37.790;2023-07-16T00:26:32;12.07;;;6.77;;
75189;SDS011;69198;44.694;37.790;2023-07-16T00:27:33;12.23;;;6.80;;
75189;SDS011;69198;44.694;37.790;2023-07-16T00:28:34;13.98;;;6.28;;
75189;SDS011;69198;44.694;37.790;2023-07-16T00:29:35;12.18;;;6.28;;
75189;SDS011;69198;44.694;37.790;2023-07-16T00:30:36;11.88;;;6.80;;
75189;SDS011;69198;44.694;37.790;2023-07-16T00:31:37;14.50;;;7.22;;
75189;SDS011;69198;44.694;37.790;2023-07-16T00:32:38;11.27;;;6.55;;
75189;SDS011;69198;44.694;37.790;2023-07-16T00:33:39;13.05;;;7.13;;
75189;SDS011;69198;44.694;37.790;2023-07-16T00:34:40;13.43;;;7.43;;
75189;SDS011;69198;44.694;37.790;2023-07-16T00:35:48;14.20;;;7.30;;
75189;SDS011;69198;44.694;37.790;2023-07-16T00:36:50;14.05;;;6.68;;
75189;SDS011;69198;44.694;37.790;2023-07-16T00:37:51;12.27;;;6.95;;
75189;SDS011;69198;44.694;37.790;2023-07-16T00:38:52;12.70;;;6.78;;
75189;SDS011;69198;44.694;37.790;2023-07-16T00:39:54;13.00;;;6.47;;
75189;SDS011;69198;44.694;37.790;2023-07-16T00:40:56;12.60;;;6.88;;
75189;SDS011;69198;44.694;37.790;2023-07-16T00:41:57;13.98;;;6.93;;
75189;SDS011;69198;44.694;37.790;2023-07-16T00:42:58;12.67;;;7.17;;
75189;SDS011;69198;44.694;37.790;2023-07-16T00:43:59;13.53;;;6.50;;
75189;SDS011;69198;44.694;37.790;2023-07-16T00:45:00;12.40;;;6.65;;
75189;SDS011;69198;44.694;37.790;2023-07-16T00:46:02;13.38;;;7.15;;
75189;SDS011;69198;44.694;37.790;2023-07-16T00:47:03;12.63;;;7.05;;
75189;SDS011;69198;44.694;37.790;2023-07-16T00:48:04;14.25;;;6.25;;
75189;SDS011;69198;44.694;37.790;2023-07-16T00:49:08;11.75;;;5.93;;
75189;SDS011;69198;44.694;37.790;2023-07-16T00:50:10;12.52;;;6.30;;
75189;SDS011;69198;44.694;37.790;2023-07-16T00:51:12;13.30;;;6.57;;
75189;SDS011;69198;44.694;37.790;2023-07-16T00:52:16;12.67;;;6.50;;
75189;SDS011;69198;44.694;37.790;2023-07-16T00:53:19;12.02;;;6.80;;
75189;SDS011;69198;44.694;37.790;2023-07-16T00:54:21;14.18;;;7.18;;
75189;SDS011;69198;44.694;37.790;2023-07-16T00:55:22;13.25;;;6.57;;
75189;SDS011;69198;44.694;37.790;2023-07-16T00:56:23;12.02;;;6.35;;
75189;SDS011;69198;44.694;37.790;2023-07-16T00:57:25;13.20;;;6.93;;
75189;SDS011;69198;44.694;37.790;2023-07-16T00:58:26;13.45;;;6.80;;
75189;SDS011;69198;44.694;37.790;2023-07-16T00:59:29;12.13;;;6.50;;
75189;SDS011;69198;44.694;37.790;2023-07-16T01:00:33;12.18;;;6.50;;
75189;SDS011;69198;44.694;37.790;2023-07-16T01:01:38;12.20;;;6.22;;
75189;SDS011;69198;44.694;37.790;2023-07-16T01:02:40;11.23;;;6.47;;
75189;SDS011;69198;44.694;37.790;2023-07-16T01:03:41;13.43;;;6.60;;
75189;SDS011;69198;44.694;37.790;2023-07-16T01:04:43;11.93;;;6.20;;
75189;SDS011;69198;44.694;37.790;2023-07-16T01:05:49;16.88;;;6.30;;
75189;SDS011;69198;44.694;37.790;2023-07-16T01:06:55;14.40;;;6.60;;
75189;SDS011;69198;44.694;37.790;2023-07-16T01:08:02;13.63;;;6.65;;
75189;SDS011;69198;44.694;37.790;2023-07-16T01:09:25;14.88;;;6.60;;
75189;SDS011;69198;44.694;37.790;2023-07-16T01:10:26;12.15;;;6.28;;
75189;SDS011;69198;44.694;37.790;2023-07-16T01:11:28;14.77;;;6.43;;
75189;SDS011;69198;44.694;37.790;2023-07-16T01:12:30;12.13;;;6.25;;
75189;SDS011;69198;44.694;37.790;2023-07-16T01:13:32;13.10;;;5.80;;
75189;SDS011;69198;44.694;37.790;2023-07-16T01:14:35;12.35;;;6.25;;
75189;SDS011;69198;44.694;37.790;2023-07-16T01:15:37;11.43;;;6.40;;
75189;SDS011;69198;44.694;37.790;2023-07-16T01:16:38;13.00;;;7.03;;
75189;SDS011;69198;44.694;37.790;2023-07-16T01:17:39;12.73;;;6.50;;
75189;SDS011;69198;44.694;37.790;2023-07-16T01:18:40;13.60;;;6.10;;
75189;SDS011;69198;44.694;37.790;2023-07-16T01:19:41;12.18;;;6.43;;
75189;SDS011;69198;44.694;37.790;2023-07-16T01:20:42;12.00;;;6.38;;
75189;SDS011;69198;44.694;37.790;2023-07-16T01:21:49;11.43;;;5.57;;
75189;SDS011;69198;44.694;37.790;2023-07-16T01:29:27;13.35;;;6.57;;
75189;SDS011;69198;44.694;37.790;2023-07-16T01:30:31;11.15;;;5.80;;
75189;SDS011;69198;44.694;37.790;2023-07-16T01:31:33;12.00;;;6.07;;
75189;SDS011;69198;44.694;37.790;2023-07-16T01:32:34;12.93;;;6.22;;
75189;SDS011;69198;44.694;37.790;2023-07-16T01:33:38;12.27;;;6.28;;
75189;SDS011;69198;44.694;37.790;2023-07-16T01:34:41;14.87;;;6.10;;
75189;SDS011;69198;44.694;37.790;2023-07-16T01:35:44;11.75;;;5.97;;
75189;SDS011;69198;44.694;37.790;2023-07-16T01:36:47;12.95;;;6.50;;
75189;SDS011;69198;44.694;37.790;2023-07-16T01:37:50;11.02;;;5.97;;
75189;SDS011;69198;44.694;37.790;2023-07-16T01:38:51;12.65;;;7.00;;
75189;SDS011;69198;44.694;37.790;2023-07-16T01:39:52;11.40;;;6.10;;
75189;SDS011;69198;44.694;37.790;2023-07-16T01:40:54;13.57;;;6.38;;
75189;SDS011;69198;44.694;37.790;2023-07-16T01:41:55;12.20;;;6.43;;
75189;SDS011;69198;44.694;37.790;2023-07-16T01:42:56;11.18;;;6.25;;
75189;SDS011;69198;44.694;37.790;2023-07-16T01:43:56;15.93;;;6.37;;
75189;SDS011;69198;44.694;37.790;2023-07-16T01:44:58;12.70;;;6.25;;
75189;SDS011;69198;44.694;37.790;2023-07-16T01:45:59;12.20;;;6.30;;
75189;SDS011;69198;44.694;37.790;2023-07-16T01:48:30;12.95;;;6.22;;
75189;SDS011;69198;44.694;37.790;2023-07-16T01:49:33;11.82;;;6.03;;
75189;SDS011;69198;44.694;37.790;2023-07-16T01:50:34;12.32;;;6.18;;
75189;SDS011;69198;44.694;37.790;2023-07-16T01:51:36;11.95;;;6.20;;
75189;SDS011;69198;44.694;37.790;2023-07-16T01:52:37;11.90;;;6.22;;
75189;SDS011;69198;44.694;37.790;2023-07-16T01:53:38;12.93;;;5.90;;
75189;SDS011;69198;44.694;37.790;2023-07-16T01:54:39;12.43;;;6.20;;
75189;SDS011;69198;44.694;37.790;2023-07-16T01:55:40;12.05;;;5.70;;
75189;SDS011;69198;44.694;37.790;2023-07-16T01:56:41;14.30;;;6.50;;
75189;SDS011;69198;44.694;37.790;2023-07-16T01:57:42;10.57;;;5.93;;
75189;SDS011;69198;44.694;37.790;2023-07-16T01:58:43;12.10;;;6.30;;
75189;SDS011;69198;44.694;37.790;2023-07-16T01:59:44;13.20;;;6.25;;
75189;SDS011;69198;44.694;37.790;2023-07-16T02:00:49;13.45;;;5.68;;
75189;SDS011;69198;44.694;37.790;2023-07-16T02:01:50;11.25;;;5.57;;
75189;SDS011;69198;44.694;37.790;2023-07-16T02:02:51;10.90;;;5.47;;
75189;SDS011;69198;44.694;37.790;2023-07-16T02:03:52;13.52;;;5.72;;
75189;SDS011;69198;44.694;37.790;2023-07-16T02:04:53;11.50;;;5.50;;
75189;SDS011;69198;44.694;37.790;2023-07-16T02:05:54;11.10;;;5.63;;
75189;SDS011;69198;44.694;37.790;2023-07-16T02:06:55;13.07;;;5.60;;
75189;SDS011;69198;44.694;37.790;2023-07-16T02:07:56;12.90;;;5.95;;
75189;SDS011;69198;44.694;37.790;2023-07-16T02:08:57;12.13;;;5.57;;
75189;SDS011;69198;44.694;37.790;2023-07-16T02:09:59;11.50;;;5.68;;
75189;SDS011;69198;44.694;37.790;2023-07-16T02:11:00;11.10;;;5.17;;
75189;SDS011;69198;44.694;37.790;2023-07-16T02:12:01;14.93;;;5.80;;
75189;SDS011;69198;44.694;37.790;2023-07-16T02:13:02;10.98;;;5.47;;
75189;SDS011;69198;44.694;37.790;2023-07-16T02:14:03;12.63;;;5.18;;
75189;SDS011;69198;44.694;37.790;2023-07-16T02:15:05;12.02;;;5.40;;
75189;SDS011;69198;44.694;37.790;2023-07-16T02:16:10;9.73;;;5.10;;
75189;SDS011;69198;44.694;37.790;2023-07-16T02:17:11;10.88;;;5.60;;
75189;SDS011;69198;44.694;37.790;2023-07-16T02:18:13;10.90;;;4.90;;
75189;SDS011;69198;44.694;37.790;2023-07-16T02:19:15;12.07;;;4.97;;
75189;SDS011;69198;44.694;37.790;2023-07-16T02:20:16;10.83;;;5.47;;
75189;SDS011;69198;44.694;37.790;2023-07-16T02:21:17;9.70;;;5.10;;
75189;SDS011;69198;44.694;37.790;2023-07-16T02:22:18;10.73;;;4.70;;
75189;SDS011;69198;44.694;37.790;2023-07-16T02:23:19;10.15;;;5.40;;
75189;SDS011;69198;44.694;37.790;2023-07-16T02:24:20;10.25;;;4.90;;
75189;SDS011;69198;44.694;37.790;2023-07-16T02:25:21;9.85;;;4.95;;
75189;SDS011;69198;44.694;37.790;2023-07-16T02:26:22;10.10;;;4.45;;
75189;SDS011;69198;44.694;37.790;2023-07-16T02:27:23;11.70;;;4.97;;
75189;SDS011;69198;44.694;37.790;2023-07-16T02:28:24;9.03;;;4.33;;
75189;SDS011;69198;44.694;37.790;2023-07-16T02:29:27;9.90;;;4.53;;
75189;SDS011;69198;44.694;37.790;2023-07-16T02:30:28;13.45;;;5.32;;
75189;SDS011;69198;44.694;37.790;2023-07-16T02:31:29;11.82;;;4.93;;
75189;SDS011;69198;44.694;37.790;2023-07-16T02:32:30;9.88;;;4.45;;
75189;SDS011;69198;44.694;37.790;2023-07-16T02:33:31;9.82;;;4.43;;
75189;SDS011;69198;44.694;37.790;2023-07-16T02:34:32;9.90;;;4.72;;
75189;SDS011;69198;44.694;37.790;2023-07-16T02:35:35;13.48;;;4.70;;
75189;SDS011;69198;44.694;37.790;2023-07-16T02:36:36;9.00;;;4.10;;
75189;SDS011;69198;44.694;37.790;2023-07-16T02:37:37;7.63;;;3.93;;
75189;SDS011;69198;44.694;37.790;2023-07-16T02:38:38;10.55;;;4.07;;
75189;SDS011;69198;44.694;37.790;2023-07-16T02:39:42;8.45;;;4.18;;
75189;SDS011;69198;44.694;37.790;2023-07-16T02:40:46;11.60;;;4.00;;
75189;SDS011;69198;44.694;37.790;2023-07-16T02:41:48;8.85;;;4.00;;
75189;SDS011;69198;44.694;37.790;2023-07-16T02:42:49;8.85;;;3.47;;
75189;SDS011;69198;44.694;37.790;2023-07-16T02:43:58;9.15;;;3.60;;
75189;SDS011;69198;44.694;37.790;2023-07-16T02:45:04;9.00;;;3.80;;
75189;SDS011;69198;44.694;37.790;2023-07-16T02:46:06;8.75;;;3.75;;
75189;SDS011;69198;44.694;37.790;2023-07-16T02:47:07;9.75;;;4.00;;
75189;SDS011;69198;44.694;37.790;2023-07-16T02:48:08;9.68;;;3.65;;
75189;SDS011;69198;44.694;37.790;2023-07-16T02:49:09;12.25;;;3.70;;
75189;SDS011;69198;44.694;37.790;2023-07-16T02:50:10;8.02;;;3.42;;
75189;SDS011;69198;44.694;37.790;2023-07-16T02:51:11;10.25;;;4.03;;
75189;SDS011;69198;44.694;37.790;2023-07-16T02:52:12;8.85;;;3.70;;
75189;SDS011;69198;44.694;37.790;2023-07-16T02:53:13;9.55;;;3.95;;
75189;SDS011;69198;44.694;37.790;2023-07-16T02:54:15;8.20;;;3.70;;
75189;SDS011;69198;44.694;37.790;2023-07-16T02:55:16;8.45;;;4.30;;
75189;SDS011;69198;44.694;37.790;2023-07-16T02:56:17;11.18;;;5.22;;
75189;SDS011;69198;44.694;37.790;2023-07-16T02:57:18;11.10;;;5.18;;
75189;SDS011;69198;44.694;37.790;2023-07-16T02:58:19;10.02;;;4.53;;
75189;SDS011;69198;44.694;37.790;2023-07-16T02:59:20;9.88;;;5.05;;
75189;SDS011;69198;44.694;37.790;2023-07-16T03:00:21;10.30;;;5.07;;
75189;SDS011;69198;44.694;37.790;2023-07-16T03:01:22;11.43;;;5.18;;
75189;SDS011;69198;44.694;37.790;2023-07-16T03:02:23;10.73;;;4.93;;
75189;SDS011;69198;44.694;37.790;2023-07-16T03:03:24;10.63;;;4.65;;
75189;SDS011;69198;44.694;37.790;2023-07-16T03:04:25;9.15;;;4.85;;
75189;SDS011;69198;44.694;37.790;2023-07-16T03:05:27;10.52;;;4.85;;
75189;SDS011;69198;44.694;37.790;2023-07-16T03:06:28;11.18;;;4.57;;
75189;SDS011;69198;44.694;37.790;2023-07-16T03:07:29;8.43;;;4.55;;
75189;SDS011;69198;44.694;37.790;2023-07-16T03:08:30;8.85;;;3.83;;
75189;SDS011;69198;44.694;37.790;2023-07-16T03:09:32;8.85;;;3.97;;
75189;SDS011;69198;44.694;37.790;2023-07-16T03:10:33;8.00;;;3.60;;
75189;SDS011;69198;44.694;37.790;2023-07-16T03:11:34;8.47;;;3.80;;
75189;SDS011;69198;44.694;37.790;2023-07-16T03:12:35;8.93;;;3.65;;
75189;SDS011;69198;44.694;37.790;2023-07-16T03:13:36;7.72;;;3.58;;
75189;SDS011;69198;44.694;37.790;2023-07-16T03:14:37;7.22;;;3.70;;
75189;SDS011;69198;44.694;37.790;2023-07-16T03:15:38;8.43;;;3.63;;
75189;SDS011;69198;44.694;37.790;2023-07-16T03:16:41;10.27;;;3.75;;
75189;SDS011;69198;44.694;37.790;2023-07-16T03:17:43;8.27;;;3.90;;
75189;SDS011;69198;44.694;37.790;2023-07-16T03:18:44;8.63;;;3.60;;
75189;SDS011;69198;44.694;37.790;2023-07-16T03:19:46;8.80;;;3.70;;
75189;SDS011;69198;44.694;37.790;2023-07-16T03:20:47;8.43;;;3.63;;
75189;SDS011;69198;44.694;37.790;2023-07-16T03:21:48;6.50;;;3.00;;
75189;SDS011;69198;44.694;37.790;2023-07-16T03:22:50;9.05;;;3.55;;
75189;SDS011;69198;44.694;37.790;2023-07-16T03:23:51;7.35;;;3.60;;
75189;SDS011;69198;44.694;37.790;2023-07-16T03:24:52;7.30;;;3.22;;
75189;SDS011;69198;44.694;37.790;2023-07-16T03:25:53;9.45;;;4.32;;
75189;SDS011;69198;44.694;37.790;2023-07-16T03:26:54;8.65;;;3.83;;
75189;SDS011;69198;44.694;37.790;2023-07-16T03:27:56;8.75;;;3.47;;
75189;SDS011;69198;44.694;37.790;2023-07-16T03:28:57;8.60;;;3.60;;
75189;SDS011;69198;44.694;37.790;2023-07-16T03:29:58;10.50;;;3.83;;
75189;SDS011;69198;44.694;37.790;2023-07-16T03:30:59;8.18;;;3.17;;
75189;SDS011;69198;44.694;37.790;2023-07-16T03:32:00;7.03;;;3.22;;
75189;SDS011;69198;44.694;37.790;2023-07-16T03:33:02;8.68;;;3.83;;
75189;SDS011;69198;44.694;37.790;2023-07-16T03:34:04;8.45;;;3.08;;
75189;SDS011;69198;44.694;37.790;2023-07-16T03:35:06;7.57;;;3.40;;
75189;SDS011;69198;44.694;37.790;2023-07-16T03:36:08;10.27;;;3.63;;
75189;SDS011;69198;44.694;37.790;2023-07-16T03:37:09;6.93;;;3.53;;
75189;SDS011;69198;44.694;37.790;2023-07-16T03:38:10;7.40;;;3.15;;
75189;SDS011;69198;44.694;37.790;2023-07-16T03:39:11;8.50;;;3.20;;
75189;SDS011;69198;44.694;37.790;2023-07-16T03:40:13;6.82;;;3.20;;
75189;SDS011;69198;44.694;37.790;2023-07-16T03:41:17;6.68;;;3.42;;
75189;SDS011;69198;44.694;37.790;2023-07-16T03:42:19;9.10;;;3.10;;
75189;SDS011;69198;44.694;37.790;2023-07-16T03:43:23;8.32;;;3.63;;
75189;SDS011;69198;44.694;37.790;2023-07-16T03:44:26;7.55;;;3.05;;
75189;SDS011;69198;44.694;37.790;2023-07-16T03:45:27;9.57;;;3.55;;
75189;SDS011;69198;44.694;37.790;2023-07-16T03:46:28;11.00;;;4.13;;
75189;SDS011;69198;44.694;37.790;2023-07-16T03:47:29;9.23;;;4.22;;
75189;SDS011;69198;44.694;37.790;2023-07-16T03:48:30;9.88;;;4.20;;
75189;SDS011;69198;44.694;37.790;2023-07-16T03:49:31;9.83;;;4.57;;
75189;SDS011;69198;44.694;37.790;2023-07-16T03:50:32;10.00;;;4.10;;
75189;SDS011;69198;44.694;37.790;2023-07-16T03:51:34;10.85;;;3.67;;
75189;SDS011;69198;44.694;37.790;2023-07-16T03:52:35;8.55;;;3.80;;
75189;SDS011;69198;44.694;37.790;2023-07-16T03:53:36;8.40;;;3.17;;
75189;SDS011;69198;44.694;37.790;2023-07-16T03:54:38;6.85;;;2.90;;
75189;SDS011;69198;44.694;37.790;2023-07-16T03:55:40;8.32;;;2.90;;
75189;SDS011;69198;44.694;37.790;2023-07-16T03:56:41;7.20;;;2.80;;
75189;SDS011;69198;44.694;37.790;2023-07-16T03:57:42;6.53;;;2.63;;
75189;SDS011;69198;44.694;37.790;2023-07-16T03:58:45;6.97;;;2.90;;
75189;SDS011;69198;44.694;37.790;2023-07-16T03:59:48;6.03;;;2.40;;
75189;SDS011;69198;44.694;37.790;2023-07-16T04:00:49;5.90;;;2.47;;
75189;SDS011;69198;44.694;37.790;2023-07-16T04:01:50;6.00;;;2.67;;
75189;SDS011;69198;44.694;37.790;2023-07-16T04:02:51;8.00;;;3.08;;
75189;SDS011;69198;44.694;37.790;2023-07-16T04:03:52;9.30;;;2.75;;
75189;SDS011;69198;44.694;37.790;2023-07-16T04:04:55;6.18;;;2.95;;
75189;SDS011;69198;44.694;37.790;2023-07-16T04:06:05;6.68;;;2.80;;
75189;SDS011;69198;44.694;37.790;2023-07-16T04:07:10;7.78;;;2.70;;
75189;SDS011;69198;44.694;37.790;2023-07-16T04:08:11;7.97;;;2.90;;
75189;SDS011;69198;44.694;37.790;2023-07-16T04:09:12;6.93;;;2.30;;
75189;SDS011;69198;44.694;37.790;2023-07-16T04:10:13;9.30;;;3.00;;
75189;SDS011;69198;44.694;37.790;2023-07-16T04:11:14;7.70;;;2.80;;
75189;SDS011;69198;44.694;37.790;2023-07-16T04:12:15;7.45;;;2.90;;
75189;SDS011;69198;44.694;37.790;2023-07-16T04:13:16;7.43;;;2.78;;
75189;SDS011;69198;44.694;37.790;2023-07-16T04:14:17;9.23;;;2.83;;
75189;SDS011;69198;44.694;37.790;2023-07-16T04:15:18;8.13;;;2.85;;
75189;SDS011;69198;44.694;37.790;2023-07-16T04:16:19;6.30;;;2.87;;
75189;SDS011;69198;44.694;37.790;2023-07-16T04:17:20;6.25;;;2.53;;
75189;SDS011;69198;44.694;37.790;2023-07-16T04:18:21;6.55;;;2.70;;
75189;SDS011;69198;44.694;37.790;2023-07-16T04:19:22;7.88;;;2.78;;
75189;SDS011;69198;44.694;37.790;2023-07-16T04:20:23;5.82;;;2.45;;
75189;SDS011;69198;44.694;37.790;2023-07-16T04:21:25;6.80;;;2.30;;
75189;SDS011;69198;44.694;37.790;2023-07-16T04:22:26;6.90;;;2.60;;
75189;SDS011;69198;44.694;37.790;2023-07-16T04:23:27;7.45;;;2.72;;
75189;SDS011;69198;44.694;37.790;2023-07-16T04:24:28;5.77;;;2.33;;
75189;SDS011;69198;44.694;37.790;2023-07-16T04:25:29;6.23;;;2.57;;
75189;SDS011;69198;44.694;37.790;2023-07-16T04:26:30;7.28;;;2.60;;
75189;SDS011;69198;44.694;37.790;2023-07-16T04:27:31;7.22;;;2.47;;
75189;SDS011;69198;44.694;37.790;2023-07-16T04:28:32;6.00;;;2.83;;
75189;SDS011;69198;44.694;37.790;2023-07-16T04:29:33;7.85;;;2.50;;
75189;SDS011;69198;44.694;37.790;2023-07-16T04:30:34;8.05;;;2.50;;
75189;SDS011;69198;44.694;37.790;2023-07-16T04:31:37;6.57;;;2.90;;
75189;SDS011;69198;44.694;37.790;2023-07-16T04:32:38;7.88;;;2.35;;
75189;SDS011;69198;44.694;37.790;2023-07-16T04:33:39;5.30;;;2.20;;
75189;SDS011;69198;44.694;37.790;2023-07-16T04:34:40;6.20;;;2.40;;
75189;SDS011;69198;44.694;37.790;2023-07-16T04:35:41;6.30;;;2.20;;
75189;SDS011;69198;44.694;37.790;2023-07-16T04:36:42;6.45;;;2.10;;
75189;SDS011;69198;44.694;37.790;2023-07-16T04:37:44;8.00;;;2.63;;
75189;SDS011;69198;44.694;37.790;2023-07-16T04:38:45;6.78;;;2.30;;
75189;SDS011;69198;44.694;37.790;2023-07-16T04:39:46;8.27;;;2.60;;
75189;SDS011;69198;44.694;37.790;2023-07-16T04:40:47;8.32;;;2.50;;
75189;SDS011;69198;44.694;37.790;2023-07-16T04:41:48;6.43;;;2.30;;
75189;SDS011;69198;44.694;37.790;2023-07-16T04:42:49;7.05;;;2.25;;
75189;SDS011;69198;44.694;37.790;2023-07-16T04:43:50;6.68;;;2.40;;
75189;SDS011;69198;44.694;37.790;2023-07-16T04:44:51;6.55;;;2.42;;
75189;SDS011;69198;44.694;37.790;2023-07-16T04:45:52;6.20;;;2.28;;
75189;SDS011;69198;44.694;37.790;2023-07-16T04:46:53;7.67;;;2.33;;
75189;SDS011;69198;44.694;37.790;2023-07-16T04:47:54;5.67;;;2.23;;
75189;SDS011;69198;44.694;37.790;2023-07-16T04:48:55;8.55;;;2.40;;
75189;SDS011;69198;44.694;37.790;2023-07-16T04:49:57;6.57;;;2.40;;
75189;SDS011;69198;44.694;37.790;2023-07-16T04:50:59;6.57;;;2.17;;
75189;SDS011;69198;44.694;37.790;2023-07-16T04:52:00;8.00;;;2.50;;
75189;SDS011;69198;44.694;37.790;2023-07-16T04:53:01;6.82;;;2.60;;
75189;SDS011;69198;44.694;37.790;2023-07-16T04:54:02;6.13;;;2.35;;
75189;SDS011;69198;44.694;37.790;2023-07-16T04:55:03;7.38;;;2.30;;
75189;SDS011;69198;44.694;37.790;2023-07-16T04:56:04;7.60;;;2.87;;
75189;SDS011;69198;44.694;37.790;2023-07-16T04:57:16;6.68;;;2.20;;
75189;SDS011;69198;44.694;37.790;2023-07-16T04:58:17;5.97;;;2.25;;
75189;SDS011;69198;44.694;37.790;2023-07-16T04:59:18;7.00;;;2.67;;
75189;SDS011;69198;44.694;37.790;2023-07-16T05:00:19;7.65;;;2.63;;
75189;SDS011;69198;44.694;37.790;2023-07-16T05:01:20;7.82;;;2.97;;
75189;SDS011;69198;44.694;37.790;2023-07-16T05:02:21;7.32;;;2.33;;
75189;SDS011;69198;44.694;37.790;2023-07-16T05:03:22;7.25;;;2.40;;
75189;SDS011;69198;44.694;37.790;2023-07-16T05:04:23;6.07;;;2.50;;
75189;SDS011;69198;44.694;37.790;2023-07-16T05:05:24;10.32;;;2.63;;
75189;SDS011;69198;44.694;37.790;2023-07-16T05:06:25;7.40;;;2.45;;
75189;SDS011;69198;44.694;37.790;2023-07-16T05:07:26;15.65;;;2.50;;
75189;SDS011;69198;44.694;37.790;2023-07-16T05:08:27;6.95;;;2.65;;
75189;SDS011;69198;44.694;37.790;2023-07-16T05:09:28;9.77;;;2.45;;
75189;SDS011;69198;44.694;37.790;2023-07-16T05:10:29;7.50;;;2.38;;
75189;SDS011;69198;44.694;37.790;2023-07-16T05:11:30;6.57;;;2.27;;
75189;SDS011;69198;44.694;37.790;2023-07-16T05:12:33;7.70;;;2.55;;
75189;SDS011;69198;44.694;37.790;2023-07-16T05:13:34;7.82;;;2.80;;
75189;SDS011;69198;44.694;37.790;2023-07-16T05:14:45;7.53;;;2.72;;
75189;SDS011;69198;44.694;37.790;2023-07-16T05:15:48;6.82;;;2.50;;
75189;SDS011;69198;44.694;37.790;2023-07-16T05:16:49;6.95;;;2.53;;
75189;SDS011;69198;44.694;37.790;2023-07-16T05:17:50;7.45;;;2.53;;
75189;SDS011;69198;44.694;37.790;2023-07-16T05:18:51;7.63;;;2.50;;
75189;SDS011;69198;44.694;37.790;2023-07-16T05:19:52;7.45;;;2.78;;
75189;SDS011;69198;44.694;37.790;2023-07-16T05:20:53;9.85;;;2.65;;
75189;SDS011;69198;44.694;37.790;2023-07-16T05:21:54;7.60;;;2.60;;
75189;SDS011;69198;44.694;37.790;2023-07-16T05:22:55;8.85;;;2.70;;
75189;SDS011;69198;44.694;37.790;2023-07-16T05:23:56;6.45;;;2.42;;
75189;SDS011;69198;44.694;37.790;2023-07-16T05:24:57;7.10;;;2.55;;
75189;SDS011;69198;44.694;37.790;2023-07-16T05:25:58;6.77;;;2.53;;
75189;SDS011;69198;44.694;37.790;2023-07-16T05:26:59;6.60;;;2.60;;
75189;SDS011;69198;44.694;37.790;2023-07-16T05:28:01;6.85;;;2.80;;
75189;SDS011;69198;44.694;37.790;2023-07-16T05:29:02;6.50;;;2.20;;
75189;SDS011;69198;44.694;37.790;2023-07-16T05:30:04;10.35;;;2.70;;
75189;SDS011;69198;44.694;37.790;2023-07-16T05:31:05;8.63;;;2.90;;
75189;SDS011;69198;44.694;37.790;2023-07-16T05:32:06;7.22;;;2.67;;
75189;SDS011;69198;44.694;37.790;2023-07-16T05:33:08;6.78;;;2.80;;
75189;SDS011;69198;44.694;37.790;2023-07-16T05:34:12;7.18;;;3.10;;
75189;SDS011;69198;44.694;37.790;2023-07-16T05:35:13;6.00;;;2.70;;
75189;SDS011;69198;44.694;37.790;2023-07-16T05:36:15;8.73;;;2.80;;
75189;SDS011;69198;44.694;37.790;2023-07-16T05:37:16;6.45;;;2.40;;
75189;SDS011;69198;44.694;37.790;2023-07-16T05:38:17;6.60;;;2.80;;
75189;SDS011;69198;44.694;37.790;2023-07-16T05:39:17;6.05;;;2.67;;
75189;SDS011;69198;44.694;37.790;2023-07-16T05:40:19;6.20;;;2.20;;
75189;SDS011;69198;44.694;37.790;2023-07-16T05:41:20;8.05;;;2.47;;
75189;SDS011;69198;44.694;37.790;2023-07-16T05:42:21;5.60;;;2.63;;
75189;SDS011;69198;44.694;37.790;2023-07-16T05:43:22;9.53;;;2.73;;
75189;SDS011;69198;44.694;37.790;2023-07-16T05:44:23;5.85;;;2.38;;
75189;SDS011;69198;44.694;37.790;2023-07-16T05:45:24;7.32;;;2.67;;
75189;SDS011;69198;44.694;37.790;2023-07-16T05:46:25;6.65;;;2.67;;
75189;SDS011;69198;44.694;37.790;2023-07-16T05:47:26;7.22;;;2.75;;
75189;SDS011;69198;44.694;37.790;2023-07-16T05:48:27;7.82;;;2.80;;
75189;SDS011;69198;44.694;37.790;2023-07-16T05:49:28;6.50;;;2.70;;
75189;SDS011;69198;44.694;37.790;2023-07-16T05:50:29;6.28;;;2.50;;
75189;SDS011;69198;44.694;37.790;2023-07-16T05:51:30;8.03;;;2.77;;
75189;SDS011;69198;44.694;37.790;2023-07-16T05:52:31;6.75;;;2.60;;
75189;SDS011;69198;44.694;37.790;2023-07-16T05:53:32;7.78;;;2.70;;
75189;SDS011;69198;44.694;37.790;2023-07-16T05:54:33;6.75;;;2.70;;
75189;SDS011;69198;44.694;37.790;2023-07-16T05:55:34;6.07;;;2.85;;
75189;SDS011;69198;44.694;37.790;2023-07-16T05:56:35;5.82;;;2.88;;
75189;SDS011;69198;44.694;37.790;2023-07-16T05:57:36;7.25;;;2.75;;
75189;SDS011;69198;44.694;37.790;2023-07-16T05:58:37;5.47;;;2.72;;
75189;SDS011;69198;44.694;37.790;2023-07-16T05:59:40;6.23;;;2.67;;
75189;SDS011;69198;44.694;37.790;2023-07-16T06:00:41;6.45;;;2.50;;
75189;SDS011;69198;44.694;37.790;2023-07-16T06:01:42;6.30;;;2.85;;
75189;SDS011;69198;44.694;37.790;2023-07-16T06:02:43;7.15;;;2.55;;
75189;SDS011;69198;44.694;37.790;2023-07-16T06:03:44;6.60;;;2.83;;
75189;SDS011;69198;44.694;37.790;2023-07-16T06:04:45;6.32;;;2.75;;
75189;SDS011;69198;44.694;37.790;2023-07-16T06:05:46;6.45;;;2.50;;
75189;SDS011;69198;44.694;37.790;2023-07-16T06:06:47;9.88;;;2.90;;
75189;SDS011;69198;44.694;37.790;2023-07-16T06:07:48;8.55;;;2.70;;
75189;SDS011;69198;44.694;37.790;2023-07-16T06:08:49;7.50;;;2.60;;
75189;SDS011;69198;44.694;37.790;2023-07-16T06:09:50;6.68;;;2.90;;
75189;SDS011;69198;44.694;37.790;2023-07-16T06:10:51;5.90;;;2.90;;